Time;durP1;ratioP1;P1;durP2;ratioP2;P2;SDS_P1;SDS_P2;PMS_P1;PMS_P2;Temp;Humidity;BMP_temperature;BMP_pressure;BME280_temperature;BME280_humidity;BME280_pressure;Samples;Min_cycle;Max_cycle;Signal;HPM_P1;HPM_P2
2022/03/14 00:00:47;;;;;;;18.77;12.60;;;8.40;99.90;;;;;;6210933;23;20008;-38
2022/03/14 00:03:14;;;;;;;17.40;12.40;;;8.30;99.90;;;;;;6209853;23;20031;-37
2022/03/14 00:05:44;;;;;;;27.10;16.50;;;8.30;99.90;;;;;;6210717;23;20016;-36
2022/03/14 00:08:11;;;;;;;21.73;13.43;;;8.30;99.90;;;;;;6189726;23;20496;-35
2022/03/14 00:10:37;;;;;;;17.23;12.60;;;8.30;99.90;;;;;;6210179;23;20021;-37
2022/03/14 00:13:04;;;;;;;16.80;13.10;;;8.30;99.90;;;;;;6208194;23;20025;-37
2022/03/14 00:15:33;;;;;;;17.27;13.07;;;8.20;99.90;;;;;;6210028;23;20574;-37
2022/03/14 00:18:01;;;;;;;24.57;17.27;;;8.20;99.90;;;;;;6192438;23;20025;-37
2022/03/14 00:20:28;;;;;;;29.77;19.53;;;8.20;99.90;;;;;;6210372;23;20095;-37
2022/03/14 00:22:56;;;;;;;23.03;15.70;;;8.10;99.90;;;;;;6207990;23;20156;-36
2022/03/14 00:25:22;;;;;;;22.63;15.73;;;8.20;99.90;;;;;;6209568;23;20032;-37
2022/03/14 00:27:48;;;;;;;24.97;16.10;;;8.10;99.90;;;;;;6191535;23;20028;-37
2022/03/14 00:30:13;;;;;;;19.90;13.77;;;8.10;99.90;;;;;;6210028;23;20029;-37
2022/03/14 00:32:39;;;;;;;22.00;16.17;;;8.20;99.90;;;;;;6208130;23;20021;-37
2022/03/14 00:35:07;;;;;;;26.83;19.70;;;8.10;99.90;;;;;;6210045;23;20020;-38
2022/03/14 00:37:33;;;;;;;22.90;16.60;;;8.00;99.90;;;;;;6192152;23;20468;-37
2022/03/14 00:40:00;;;;;;;22.63;14.63;;;8.00;99.90;;;;;;6208285;23;20012;-37
2022/03/14 00:42:27;;;;;;;23.00;15.43;;;8.00;99.90;;;;;;6209916;23;20096;-37
2022/03/14 00:44:53;;;;;;;19.70;13.70;;;8.00;99.90;;;;;;6183017;23;20075;-37
2022/03/14 00:47:19;;;;;;;19.77;13.30;;;7.90;99.90;;;;;;6192176;23;20022;-37
2022/03/14 00:49:46;;;;;;;20.67;13.87;;;7.90;99.90;;;;;;6209689;23;20024;-38
2022/03/14 00:52:12;;;;;;;18.97;13.10;;;7.90;99.90;;;;;;6209802;23;20035;-37
2022/03/14 00:54:38;;;;;;;20.97;14.13;;;8.00;99.90;;;;;;6210427;23;20325;-38
2022/03/14 00:57:04;;;;;;;19.13;14.10;;;7.90;99.90;;;;;;6193415;23;20624;-38
2022/03/14 00:59:30;;;;;;;20.10;14.47;;;7.90;99.90;;;;;;6209611;23;20024;-37
2022/03/14 01:01:56;;;;;;;18.83;13.47;;;7.90;99.90;;;;;;6210336;23;20082;-36
2022/03/14 01:04:22;;;;;;;20.07;14.00;;;7.90;99.90;;;;;;6209101;23;20024;-36
2022/03/14 01:06:48;;;;;;;21.70;14.90;;;7.90;99.90;;;;;;6194220;23;20017;-36
2022/03/14 01:09:14;;;;;;;21.23;14.53;;;7.90;99.90;;;;;;6209288;23;20522;-37
2022/03/14 01:11:43;;;;;;;22.80;13.70;;;7.90;99.90;;;;;;6209631;23;20016;-36
2022/03/14 01:14:15;;;;;;;20.80;14.63;;;7.90;99.90;;;;;;6209582;23;20091;-35
2022/03/14 01:16:45;;;;;;;20.73;14.57;;;7.90;99.90;;;;;;6192601;23;20406;-37
2022/03/14 01:19:11;;;;;;;20.20;14.53;;;7.90;99.90;;;;;;6207192;23;20106;-37
2022/03/14 01:21:40;;;;;;;22.03;15.97;;;7.90;99.90;;;;;;6209654;23;20020;-37
2022/03/14 01:24:06;;;;;;;22.47;15.23;;;7.90;99.90;;;;;;6209356;23;20025;-38
2022/03/14 01:26:35;;;;;;;19.20;13.83;;;7.90;99.90;;;;;;6195473;23;20601;-37
2022/03/14 01:29:02;;;;;;;19.40;14.83;;;8.00;99.90;;;;;;6205332;23;20148;-37
2022/03/14 01:31:28;;;;;;;21.23;14.50;;;8.10;99.90;;;;;;6208140;23;20092;-37
2022/03/14 01:33:54;;;;;;;21.43;14.30;;;8.00;99.90;;;;;;6208816;23;20028;-37
2022/03/14 01:36:20;;;;;;;19.97;14.27;;;8.10;99.90;;;;;;6196617;23;20032;-37
2022/03/14 01:38:46;;;;;;;19.27;14.17;;;8.10;99.90;;;;;;6204217;23;20013;-37
2022/03/14 01:41:15;;;;;;;18.53;14.37;;;8.10;99.90;;;;;;6207857;23;20025;-37
2022/03/14 01:43:41;;;;;;;19.83;14.10;;;8.10;99.90;;;;;;6209023;23;20028;-36
2022/03/14 01:46:06;;;;;;;22.90;14.40;;;8.10;99.90;;;;;;6204343;23;20025;-37
2022/03/14 01:48:32;;;;;;;17.50;13.43;;;8.40;99.90;;;;;;6195786;23;20139;-36
2022/03/14 01:50:58;;;;;;;19.40;15.13;;;8.10;99.90;;;;;;6209712;23;20027;-37
2022/03/14 01:53:26;;;;;;;18.70;14.40;;;8.10;99.90;;;;;;6209143;23;20076;-37
2022/03/14 01:55:52;;;;;;;22.40;15.20;;;8.10;99.90;;;;;;6207601;23;20100;-36
2022/03/14 01:58:19;;;;;;;20.07;14.73;;;8.10;99.90;;;;;;6189019;23;20024;-37
2022/03/14 02:00:44;;;;;;;20.17;14.67;;;8.10;99.90;;;;;;6207689;23;20518;-37
2022/03/14 02:03:10;;;;;;;20.23;15.17;;;8.10;99.90;;;;;;6208307;23;20028;-38
2022/03/14 02:05:37;;;;;;;20.90;15.13;;;8.00;99.90;;;;;;6208058;23;20072;-38
2022/03/14 02:08:08;;;;;;;20.93;14.23;;;8.10;99.90;;;;;;6190830;23;20028;-37
2022/03/14 02:10:34;;;;;;;18.85;14.00;;;8.10;99.90;;;;;;6209375;23;20051;-37
2022/03/14 02:13:07;;;;;;;19.93;13.83;;;8.10;99.90;;;;;;6207166;23;20021;-36
2022/03/14 02:15:33;;;;;;;19.50;13.70;;;8.10;99.90;;;;;;6208866;23;20348;-37
2022/03/14 02:18:00;;;;;;;19.73;14.47;;;8.10;99.90;;;;;;6190903;23;20201;-38
2022/03/14 02:20:25;;;;;;;19.63;14.47;;;8.10;99.90;;;;;;6208119;23;20028;-36
2022/03/14 02:22:51;;;;;;;19.97;15.27;;;8.10;99.90;;;;;;6208519;23;20043;-36
2022/03/14 02:25:17;;;;;;;21.07;14.47;;;8.10;99.90;;;;;;6209578;23;20029;-38
2022/03/14 02:27:43;;;;;;;20.30;14.30;;;8.10;99.90;;;;;;6189624;23;20013;-37
2022/03/14 02:30:09;;;;;;;20.30;14.53;;;8.10;99.90;;;;;;6182909;23;20016;-36
2022/03/14 02:32:41;;;;;;;19.90;14.13;;;8.10;99.90;;;;;;6208279;23;20024;-37
2022/03/14 02:35:08;;;;;;;19.85;15.25;;;8.20;99.90;;;;;;6208353;23;20134;-36
2022/03/14 02:37:34;;;;;;;20.33;14.43;;;8.20;99.90;;;;;;6190178;23;20040;-38
2022/03/14 02:40:00;;;;;;;20.63;14.77;;;8.30;99.90;;;;;;6209537;23;20047;-37
2022/03/14 02:42:27;;;;;;;19.13;14.00;;;8.20;99.90;;;;;;6206332;23;20016;-36
2022/03/14 02:44:52;;;;;;;18.03;13.33;;;8.20;99.90;;;;;;6209404;23;20024;-37
2022/03/14 02:47:19;;;;;;;18.83;14.23;;;8.10;99.90;;;;;;6190719;23;20099;-37
2022/03/14 02:49:45;;;;;;;21.30;14.50;;;8.10;99.90;;;;;;6209905;23;20024;-35
2022/03/14 02:52:10;;;;;;;22.37;14.43;;;8.20;99.90;;;;;;6207868;23;20016;-36
2022/03/14 02:54:36;;;;;;;18.67;13.37;;;8.10;99.90;;;;;;6207822;23;20344;-38
2022/03/14 02:57:03;;;;;;;19.20;13.57;;;8.10;99.90;;;;;;6192848;23;20145;-37
2022/03/14 02:59:28;;;;;;;17.77;12.57;;;8.10;99.90;;;;;;6208632;23;20032;-36
2022/03/14 03:01:54;;;;;;;18.60;12.90;;;8.10;99.90;;;;;;6207235;23;20020;-38
2022/03/14 03:04:20;;;;;;;19.87;13.03;;;8.10;99.90;;;;;;6206592;23;20286;-37
2022/03/14 03:06:46;;;;;;;19.50;13.17;;;8.10;99.90;;;;;;6188427;23;20544;-37
2022/03/14 03:09:13;;;;;;;17.23;13.37;;;8.10;99.90;;;;;;6181378;23;20029;-35
2022/03/14 03:11:40;;;;;;;18.37;13.03;;;8.10;99.90;;;;;;6207139;23;20021;-37
2022/03/14 03:14:06;;;;;;;20.63;13.33;;;8.10;99.90;;;;;;6208252;23;20452;-37
2022/03/14 03:16:34;;;;;;;17.80;12.70;;;8.10;99.90;;;;;;6193141;23;20053;-36
2022/03/14 03:19:00;;;;;;;18.43;12.47;;;8.10;99.90;;;;;;6206588;23;20027;-37
2022/03/14 03:21:26;;;;;;;17.57;12.47;;;8.10;99.90;;;;;;6207311;23;20377;-35
2022/03/14 03:23:53;;;;;;;18.07;13.83;;;8.10;99.90;;;;;;6206596;23;20108;-36
2022/03/14 03:26:19;;;;;;;18.60;13.17;;;8.10;99.90;;;;;;6194916;23;20020;-35
2022/03/14 03:28:45;;;;;;;15.17;11.37;;;8.10;99.90;;;;;;6203403;23;20025;-37
2022/03/14 03:31:22;;;;;;;17.43;12.47;;;8.20;99.90;;;;;;6209514;23;20149;-35
2022/03/14 03:33:50;;;;;;;16.57;12.50;;;8.10;99.90;;;;;;6206641;23;20403;-37
2022/03/14 03:36:34;;;;;;;16.27;11.63;;;8.20;99.90;;;;;;6190496;23;20021;-38
2022/03/14 03:39:00;;;;;;;16.43;12.13;;;8.10;99.90;;;;;;6207592;23;20028;-37
2022/03/14 03:41:27;;;;;;;16.80;12.37;;;8.20;99.90;;;;;;6206880;23;20043;-37
2022/03/14 03:43:54;;;;;;;16.53;12.57;;;8.20;99.90;;;;;;6208136;23;20021;-37
2022/03/14 03:46:19;;;;;;;17.13;12.80;;;8.20;99.90;;;;;;6194133;23;20052;-38
2022/03/14 03:48:45;;;;;;;17.80;12.63;;;8.20;99.90;;;;;;6200674;23;20087;-35
2022/03/14 03:51:13;;;;;;;16.20;12.03;;;8.20;99.90;;;;;;6209144;23;20108;-37
2022/03/14 03:53:39;;;;;;;19.43;13.20;;;8.20;99.90;;;;;;6209606;23;20356;-37
2022/03/14 03:56:05;;;;;;;15.67;12.13;;;8.20;99.90;;;;;;6209035;23;20056;-35
2022/03/14 03:58:31;;;;;;;17.27;12.57;;;8.20;99.90;;;;;;6175572;23;20557;-38
2022/03/14 04:00:56;;;;;;;15.73;12.37;;;8.20;99.90;;;;;;6209933;23;20024;-37
2022/03/14 04:03:22;;;;;;;16.83;11.90;;;8.20;99.90;;;;;;6209308;23;20092;-37
2022/03/14 04:05:52;;;;;;;18.13;11.60;;;8.20;99.90;;;;;;6211204;23;20287;-38
2022/03/14 04:08:24;;;;;;;16.23;11.90;;;8.20;99.90;;;;;;6191714;23;20402;-35
2022/03/14 04:10:54;;;;;;;16.17;12.30;;;8.20;99.90;;;;;;6210743;23;20168;-36
2022/03/14 04:13:23;;;;;;;17.50;12.30;;;8.30;99.90;;;;;;6207691;23;20520;-37
2022/03/14 04:15:54;;;;;;;13.97;11.63;;;8.20;99.90;;;;;;6210576;23;20025;-38
2022/03/14 04:18:20;;;;;;;16.67;11.00;;;8.20;99.90;;;;;;6190819;23;20020;-36
2022/03/14 04:20:49;;;;;;;15.80;11.87;;;8.30;99.90;;;;;;6208949;23;20534;-38
2022/03/14 04:23:17;;;;;;;14.70;10.67;;;8.20;99.90;;;;;;6209141;23;20439;-37
2022/03/14 04:25:44;;;;;;;14.43;10.40;;;8.30;99.90;;;;;;6210061;23;20055;-34
2022/03/14 04:28:11;;;;;;;14.17;10.00;;;8.30;99.90;;;;;;6190836;23;20092;-38
2022/03/14 04:30:37;;;;;;;13.57;10.17;;;8.20;99.90;;;;;;6210580;23;20021;-37
2022/03/14 04:33:02;;;;;;;14.43;10.00;;;8.30;99.90;;;;;;6209019;23;20027;-36
2022/03/14 04:35:28;;;;;;;11.87;9.37;;;8.50;99.90;;;;;;6210993;23;20399;-37
2022/03/14 04:37:54;;;;;;;13.13;9.77;;;8.20;99.90;;;;;;6193361;23;20443;-37
2022/03/14 04:40:20;;;;;;;11.57;9.20;;;8.30;99.90;;;;;;6210581;23;20538;-37
2022/03/14 04:42:46;;;;;;;21.03;15.17;;;8.30;99.90;;;;;;6209319;23;20032;-37
2022/03/14 04:45:12;;;;;;;13.13;9.10;;;8.30;99.90;;;;;;6208748;23;20016;-37
2022/03/14 04:47:38;;;;;;;16.10;11.47;;;8.30;99.90;;;;;;6190875;23;20024;-37
2022/03/14 04:50:05;;;;;;;15.80;10.27;;;8.30;99.90;;;;;;6208655;23;20020;-38
2022/03/14 04:52:31;;;;;;;14.70;9.17;;;8.40;99.90;;;;;;6182257;23;20020;-37
2022/03/14 04:55:03;;;;;;;10.83;8.60;;;8.40;99.90;;;;;;6210395;23;20325;-38
2022/03/14 04:57:29;;;;;;;13.00;8.30;;;8.40;99.90;;;;;;6190961;23;20360;-36
2022/03/14 04:59:55;;;;;;;9.40;7.57;;;8.50;99.90;;;;;;6208327;23;20020;-38
2022/03/14 05:02:25;;;;;;;10.40;6.93;;;8.40;99.90;;;;;;6209429;23;20035;-37
2022/03/14 05:04:51;;;;;;;11.67;7.73;;;8.40;99.90;;;;;;6209833;23;20114;-36
2022/03/14 05:07:17;;;;;;;13.03;8.90;;;8.40;99.90;;;;;;6192973;23;20067;-36
2022/03/14 05:09:43;;;;;;;19.27;13.87;;;8.40;99.90;;;;;;6208011;23;20047;-36
2022/03/14 05:12:11;;;;;;;21.77;15.63;;;8.40;99.90;;;;;;6209685;23;20535;-36
2022/03/14 05:14:38;;;;;;;24.67;16.03;;;8.40;99.90;;;;;;6209772;23;20318;-36
2022/03/14 05:17:04;;;;;;;31.70;20.33;;;8.40;99.90;;;;;;6193380;23;20031;-38
2022/03/14 05:19:29;;;;;;;21.10;14.50;;;8.40;99.90;;;;;;6206977;23;20343;-37
2022/03/14 05:21:55;;;;;;;13.67;9.10;;;8.40;99.90;;;;;;6206649;23;20027;-37
2022/03/14 05:24:21;;;;;;;11.53;7.67;;;8.40;99.90;;;;;;6208505;23;20365;-37
2022/03/14 05:26:49;;;;;;;11.27;7.60;;;8.60;99.90;;;;;;6193235;23;20428;-36
2022/03/14 05:29:15;;;;;;;9.47;7.53;;;8.50;99.90;;;;;;6208607;23;20032;-36
2022/03/14 05:31:42;;;;;;;9.57;6.87;;;8.40;99.90;;;;;;6208353;23;20341;-37
2022/03/14 05:34:09;;;;;;;9.93;6.90;;;8.40;99.90;;;;;;6206472;23;20028;-36
2022/03/14 05:36:36;;;;;;;8.73;6.97;;;8.50;99.90;;;;;;6192071;23;20466;-36
2022/03/14 05:39:05;;;;;;;7.93;6.23;;;8.50;99.90;;;;;;6206976;23;20020;-36
2022/03/14 05:41:30;;;;;;;7.70;6.33;;;8.40;99.90;;;;;;6208281;23;20043;-37
2022/03/14 05:43:57;;;;;;;7.60;5.97;;;8.50;99.90;;;;;;6206857;23;20107;-37
2022/03/14 05:46:23;;;;;;;8.67;6.97;;;8.40;99.90;;;;;;6195878;23;20047;-37
2022/03/14 05:48:49;;;;;;;8.17;6.30;;;8.50;99.90;;;;;;6205109;23;20625;-33
2022/03/14 05:51:15;;;;;;;7.73;6.40;;;8.40;99.90;;;;;;6210141;23;20028;-34
2022/03/14 05:53:40;;;;;;;7.80;6.20;;;8.40;99.90;;;;;;6206632;23;20425;-37
2022/03/14 05:56:06;;;;;;;7.07;6.00;;;8.50;99.90;;;;;;6209659;23;20099;-37
2022/03/14 05:58:37;;;;;;;8.02;5.72;;;8.50;99.90;;;;;;6200374;23;20087;-37
2022/03/14 06:01:02;;;;;;;7.27;5.90;;;8.50;99.90;;;;;;6209828;23;20044;-37
2022/03/14 06:03:28;;;;;;;7.13;5.63;;;8.50;99.90;;;;;;6208473;23;20025;-34
2022/03/14 06:05:54;;;;;;;7.40;5.80;;;8.50;99.90;;;;;;6208416;23;20021;-35
2022/03/14 06:08:19;;;;;;;6.47;5.33;;;8.50;99.90;;;;;;6193727;23;20020;-38
2022/03/14 06:10:46;;;;;;;7.17;5.07;;;8.50;99.90;;;;;;6209124;23;20020;-37
2022/03/14 06:13:15;;;;;;;8.00;5.40;;;8.50;99.90;;;;;;6208729;23;20108;-37
2022/03/14 06:15:47;;;;;;;6.87;5.37;;;8.50;99.90;;;;;;6184021;23;20025;-37
2022/03/14 06:18:14;;;;;;;8.47;5.40;;;8.50;99.90;;;;;;6193593;23;20024;-36
2022/03/14 06:20:40;;;;;;;6.07;5.47;;;8.50;99.90;;;;;;6209952;23;20023;-38
2022/03/14 06:23:06;;;;;;;5.67;4.53;;;8.50;99.90;;;;;;6206944;23;20092;-36
2022/03/14 06:25:38;;;;;;;6.47;5.00;;;8.50;99.90;;;;;;6206347;23;20024;-37
2022/03/14 06:28:05;;;;;;;6.53;5.10;;;8.50;99.90;;;;;;6192921;23;20024;-36
2022/03/14 06:30:34;;;;;;;7.70;5.07;;;8.50;99.90;;;;;;6206653;23;20104;-36
2022/03/14 06:32:59;;;;;;;6.37;5.20;;;8.50;99.90;;;;;;6204652;23;20052;-38
2022/03/14 06:35:25;;;;;;;5.87;4.57;;;8.50;99.90;;;;;;6204125;23;20051;-36
2022/03/14 06:37:51;;;;;;;5.73;4.67;;;8.50;99.90;;;;;;6190771;23;20027;-36
2022/03/14 06:40:17;;;;;;;5.53;4.13;;;8.50;99.90;;;;;;6181275;23;20387;-38
2022/03/14 06:42:52;;;;;;;6.27;4.73;;;8.50;99.90;;;;;;6208706;23;20070;-37
2022/03/14 06:45:23;;;;;;;5.93;4.63;;;8.50;99.90;;;;;;6209571;23;20027;-37
2022/03/14 06:47:54;;;;;;;5.27;4.30;;;8.50;99.90;;;;;;6191495;23;20016;-37
2022/03/14 06:50:21;;;;;;;;;;;8.50;99.90;;;;;;6209292;23;20024;-38
2022/03/14 06:52:47;;;;;;;6.50;4.37;;;8.60;99.90;;;;;;6208589;23;19919;-37
2022/03/14 06:55:13;;;;;;;5.73;4.80;;;8.50;99.90;;;;;;6207664;23;20025;-37
2022/03/14 06:57:39;;;;;;;6.27;4.73;;;8.70;99.90;;;;;;6192404;23;20052;-37
2022/03/14 07:00:07;;;;;;;5.10;4.33;;;8.60;99.90;;;;;;6207363;23;20013;-38
2022/03/14 07:02:35;;;;;;;5.67;4.00;;;8.60;99.90;;;;;;6208537;23;20502;-37
2022/03/14 07:05:01;;;;;;;5.37;4.30;;;8.70;99.90;;;;;;6209142;23;20024;-35
2022/03/14 07:07:27;;;;;;;5.67;4.60;;;8.60;99.90;;;;;;6192924;23;20027;-36
2022/03/14 07:09:54;;;;;;;6.30;4.60;;;8.60;99.90;;;;;;6209445;23;20083;-37
2022/03/14 07:12:20;;;;;;;5.47;4.37;;;8.70;99.90;;;;;;6206429;23;20088;-36
2022/03/14 07:14:46;;;;;;;7.50;4.40;;;8.70;99.90;;;;;;6209051;23;20020;-34
2022/03/14 07:17:11;;;;;;;6.17;4.97;;;8.70;99.90;;;;;;6193340;23;20019;-36
2022/03/14 07:19:42;;;;;;;5.87;4.60;;;8.70;99.90;;;;;;6181499;23;20118;-37
2022/03/14 07:22:10;;;;;;;6.47;5.53;;;8.70;99.90;;;;;;6209008;23;20013;-37
2022/03/14 07:24:35;;;;;;;6.60;5.23;;;8.80;99.90;;;;;;6207549;23;20032;-36
2022/03/14 07:27:01;;;;;;;6.27;5.30;;;8.80;99.90;;;;;;6196388;23;20348;-37
2022/03/14 07:29:27;;;;;;;6.70;5.13;;;8.80;99.90;;;;;;6182730;23;20024;-36
2022/03/14 07:31:52;;;;;;;5.90;4.73;;;8.80;99.90;;;;;;6208373;23;20036;-37
2022/03/14 07:34:18;;;;;;;6.37;5.17;;;8.80;99.90;;;;;;6209786;23;20028;-35
2022/03/14 07:36:44;;;;;;;6.97;4.67;;;8.80;99.90;;;;;;6192463;23;20024;-35
2022/03/14 07:39:10;;;;;;;6.27;4.73;;;8.90;99.90;;;;;;6210962;23;20013;-35
2022/03/14 07:41:37;;;;;;;5.63;4.50;;;8.90;99.90;;;;;;6210282;23;20356;-35
2022/03/14 07:44:05;;;;;;;5.10;4.60;;;8.90;99.90;;;;;;6210002;23;20032;-36
2022/03/14 07:46:32;;;;;;;5.33;4.57;;;8.90;99.90;;;;;;6195450;23;20027;-37
2022/03/14 07:48:57;;;;;;;5.07;4.30;;;9.00;99.90;;;;;;6170746;23;20468;-33
2022/03/14 07:51:28;;;;;;;4.57;4.10;;;9.00;99.90;;;;;;6195041;23;20103;-36
2022/03/14 07:53:53;;;;;;;8.07;4.90;;;9.00;99.90;;;;;;6193515;23;20056;-36
2022/03/14 07:56:19;;;;;;;6.10;4.43;;;9.00;99.90;;;;;;6197206;23;20028;-34
2022/03/14 07:58:45;;;;;;;6.10;4.80;;;9.20;99.90;;;;;;6203952;23;20024;-36
2022/03/14 08:01:10;;;;;;;9.77;5.80;;;9.10;99.90;;;;;;6193450;23;20059;-37
2022/03/14 08:03:36;;;;;;;6.63;5.20;;;9.10;99.90;;;;;;6208332;23;20028;-37
2022/03/14 08:06:07;;;;;;;6.73;5.00;;;9.10;99.90;;;;;;6209209;23;20044;-37
2022/03/14 08:08:33;;;;;;;5.97;4.95;;;9.10;99.90;;;;;;6196117;23;20031;-35
2022/03/14 08:11:01;;;;;;;6.07;4.87;;;9.20;99.90;;;;;;6181642;23;20017;-37
2022/03/14 08:13:27;;;;;;;5.20;4.27;;;9.20;99.90;;;;;;6194143;23;20136;-37
2022/03/14 08:15:53;;;;;;;5.63;4.60;;;9.20;99.90;;;;;;6208979;23;20045;-36
2022/03/14 08:18:19;;;;;;;6.07;4.80;;;9.20;99.90;;;;;;6192030;23;20071;-34
2022/03/14 08:20:44;;;;;;;5.90;4.73;;;9.20;99.90;;;;;;6206996;23;20020;-37
2022/03/14 08:23:11;;;;;;;6.60;5.20;;;9.30;99.90;;;;;;6208874;23;20025;-38
2022/03/14 08:25:38;;;;;;;6.53;5.43;;;9.30;99.90;;;;;;6182448;23;20463;-36
2022/03/14 08:28:04;;;;;;;7.90;5.60;;;9.30;99.90;;;;;;6192061;23;20074;-38
2022/03/14 08:30:30;;;;;;;7.13;5.60;;;9.40;99.90;;;;;;6194011;23;20025;-37
2022/03/14 08:33:00;;;;;;;7.00;5.53;;;9.40;99.90;;;;;;6195027;23;20470;-36
2022/03/14 08:35:28;;;;;;;6.37;5.10;;;9.40;99.90;;;;;;6209646;23;20025;-36
2022/03/14 08:37:55;;;;;;;7.20;5.27;;;9.50;99.90;;;;;;6192547;23;20321;-37
2022/03/14 08:40:23;;;;;;;9.13;5.60;;;9.40;99.90;;;;;;6209083;23;20023;-36
2022/03/14 08:42:56;;;;;;;6.23;5.37;;;9.50;99.90;;;;;;6207925;23;20139;-37
2022/03/14 08:45:23;;;;;;;7.37;5.60;;;9.50;99.90;;;;;;6208893;23;20038;-37
2022/03/14 08:47:50;;;;;;;6.70;5.20;;;9.50;99.90;;;;;;6189430;23;20317;-36
2022/03/14 08:50:16;;;;;;;6.30;5.37;;;9.60;99.90;;;;;;6209301;23;20016;-36
2022/03/14 08:52:42;;;;;;;6.67;5.80;;;9.50;99.90;;;;;;6208279;23;20066;-37
2022/03/14 08:55:08;;;;;;;7.07;5.40;;;9.60;99.90;;;;;;6207510;23;20024;-38
2022/03/14 08:57:34;;;;;;;6.50;5.40;;;9.50;99.90;;;;;;6192472;23;20325;-36
2022/03/14 09:00:00;;;;;;;6.80;5.53;;;9.60;99.90;;;;;;6208893;23;20035;-37
2022/03/14 09:02:26;;;;;;;7.73;5.10;;;9.60;99.90;;;;;;6193696;23;20399;-38
2022/03/14 09:04:52;;;;;;;7.67;5.80;;;9.70;99.90;;;;;;6208076;23;20253;-36
2022/03/14 09:07:28;;;;;;;7.60;6.30;;;9.70;99.90;;;;;;6191000;23;20048;-38
2022/03/14 09:09:59;;;;;;;6.90;5.40;;;9.60;99.90;;;;;;6193429;23;20035;-37
2022/03/14 09:12:25;;;;;;;8.18;5.53;;;9.70;99.90;;;;;;6206551;23;20096;-37
2022/03/14 09:14:52;;;;;;;7.93;5.90;;;9.60;99.90;;;;;;6209580;23;20060;-37
2022/03/14 09:17:18;;;;;;;9.47;6.33;;;9.70;99.90;;;;;;6165151;23;20028;-37
2022/03/14 09:19:44;;;;;;;8.10;6.47;;;9.80;99.90;;;;;;6208075;23;20424;-37
2022/03/14 09:22:10;;;;;;;7.13;6.00;;;9.80;99.90;;;;;;6207997;23;20023;-35
2022/03/14 09:24:41;;;;;;;9.03;6.70;;;9.80;99.90;;;;;;6208805;23;20135;-37
2022/03/14 09:27:07;;;;;;;8.33;7.13;;;9.80;99.90;;;;;;6189545;23;20520;-37
2022/03/14 09:29:33;;;;;;;9.03;6.97;;;9.80;99.90;;;;;;6208480;23;20039;-36
2022/03/14 09:31:59;;;;;;;7.70;6.90;;;9.80;99.90;;;;;;6208775;23;20440;-35
2022/03/14 09:34:25;;;;;;;9.00;6.87;;;10.00;99.90;;;;;;6208038;23;20021;-37
2022/03/14 09:36:51;;;;;;;9.33;7.30;;;9.90;99.90;;;;;;6192345;23;20324;-36
2022/03/14 09:39:20;;;;;;;8.83;7.30;;;9.90;99.90;;;;;;6206667;23;20344;-38
2022/03/14 09:41:48;;;;;;;10.50;8.13;;;9.90;99.90;;;;;;6208570;23;20071;-35
2022/03/14 09:44:16;;;;;;;13.23;9.13;;;9.90;99.90;;;;;;6207159;23;20499;-38
2022/03/14 09:46:47;;;;;;;13.00;10.10;;;9.90;99.90;;;;;;6166973;23;20025;-37
2022/03/14 09:49:14;;;;;;;18.42;14.38;;;9.90;99.90;;;;;;6148235;23;20116;-37
2022/03/14 09:51:42;;;;;;;20.03;15.97;;;9.90;99.90;;;;;;6208652;23;20082;-38
2022/03/14 09:54:10;;;;;;;23.10;17.73;;;9.90;99.90;;;;;;6207540;23;20025;-34
2022/03/14 09:56:41;;;;;;;25.97;19.80;;;9.80;99.90;;;;;;6194329;23;20135;-37
2022/03/14 09:59:14;;;;;;;25.40;19.30;;;9.90;99.90;;;;;;6205534;23;20028;-37
2022/03/14 10:01:42;;;;;;;26.57;20.60;;;9.80;99.90;;;;;;6201057;23;20526;-37
2022/03/14 10:04:09;;;;;;;28.80;21.63;;;9.80;99.90;;;;;;6198340;23;20035;-36
2022/03/14 10:06:36;;;;;;;29.13;20.63;;;9.80;99.90;;;;;;6194699;23;20346;-37
2022/03/14 10:09:03;;;;;;;24.13;17.97;;;9.70;99.90;;;;;;6203889;23;20047;-36
2022/03/14 10:11:31;;;;;;;22.60;16.13;;;9.70;99.90;;;;;;6195281;23;20024;-37
2022/03/14 10:13:57;;;;;;;19.73;14.80;;;9.70;99.90;;;;;;6201023;23;20017;-37
2022/03/14 10:16:27;;;;;;;20.10;14.80;;;9.70;99.90;;;;;;6195732;23;20475;-36
2022/03/14 10:18:55;;;;;;;19.93;14.67;;;9.60;99.90;;;;;;6170377;23;20066;-37
2022/03/14 10:21:50;;;;;;;21.60;15.03;;;9.60;99.90;;;;;;6205083;23;20459;-36
2022/03/14 10:24:21;;;;;;;21.63;14.13;;;9.60;99.90;;;;;;6204768;23;20292;-34
2022/03/14 10:26:47;;;;;;;22.03;14.53;;;9.50;99.90;;;;;;6191153;23;20021;-37
2022/03/14 10:29:14;;;;;;;19.47;13.33;;;9.60;99.90;;;;;;6206778;23;20463;-37
2022/03/14 10:31:55;;;;;;;20.40;13.90;;;9.50;99.90;;;;;;6204966;23;20452;-34
2022/03/14 10:34:21;;;;;;;26.25;12.88;;;9.60;99.90;;;;;;6205888;23;20069;-33
2022/03/14 10:36:53;;;;;;;23.63;11.53;;;9.70;99.90;;;;;;6166528;23;20021;-37
2022/03/14 10:39:27;;;;;;;20.80;11.43;;;9.60;99.90;;;;;;6207712;23;20104;-36
2022/03/14 10:42:12;;;;;;;19.83;11.53;;;9.60;99.90;;;;;;6208510;23;20107;-37
2022/03/14 10:44:42;;;;;;;21.80;11.73;;;9.60;99.90;;;;;;6154205;23;20386;-37
2022/03/14 10:47:13;;;;;;;23.15;11.98;;;9.70;99.90;;;;;;6191101;23;20331;-37
2022/03/14 10:49:40;;;;;;;22.23;11.95;;;9.60;99.90;;;;;;6177902;23;20017;-37
2022/03/14 10:52:13;;;;;;;23.83;11.30;;;9.70;99.90;;;;;;6175346;23;20084;-37
2022/03/14 10:54:42;;;;;;;21.90;10.63;;;9.70;99.90;;;;;;6208058;23;20016;-37
2022/03/14 10:57:16;;;;;;;23.07;11.13;;;9.70;99.90;;;;;;6191634;23;20373;-37
2022/03/14 10:59:44;;;;;;;23.40;10.80;;;9.70;99.90;;;;;;6209229;23;20091;-35
2022/03/14 11:02:20;;;;;;;21.30;10.17;;;9.70;99.90;;;;;;6209042;23;20352;-37
2022/03/14 11:04:51;;;;;;;20.40;10.10;;;9.70;99.90;;;;;;6210085;23;20025;-34
2022/03/14 11:07:19;;;;;;;24.03;10.07;;;9.70;99.90;;;;;;6194008;23;20017;-37
2022/03/14 11:09:49;;;;;;;18.67;9.17;;;9.80;99.90;;;;;;6210197;23;20448;-37
2022/03/14 11:12:21;;;;;;;19.83;9.93;;;9.80;99.90;;;;;;6182288;23;20052;-37
2022/03/14 11:15:02;;;;;;;19.60;9.93;;;9.80;99.90;;;;;;6210419;23;20095;-38
2022/03/14 11:17:34;;;;;;;18.25;9.80;;;9.80;99.90;;;;;;6192178;23;20027;-38
2022/03/14 11:20:00;;;;;;;22.23;10.33;;;9.80;99.90;;;;;;6207225;23;20347;-37
2022/03/14 11:22:29;;;;;;;19.93;10.83;;;9.80;99.90;;;;;;6208898;23;20020;-37
2022/03/14 11:24:56;;;;;;;22.03;10.43;;;9.80;99.90;;;;;;6209778;23;20020;-36
2022/03/14 11:27:23;;;;;;;22.63;10.47;;;9.90;99.90;;;;;;6179581;23;20027;-36
2022/03/14 11:29:54;;;;;;;19.43;8.67;;;9.90;99.90;;;;;;6208386;23;20032;-37
2022/03/14 11:32:21;;;;;;;18.83;7.37;;;9.80;99.90;;;;;;6208928;23;20024;-34
2022/03/14 11:34:55;;;;;;;15.93;7.97;;;9.90;99.90;;;;;;6184561;23;20078;-35
2022/03/14 11:37:21;;;;;;;16.17;7.47;;;9.90;99.90;;;;;;6197570;23;20029;-37
2022/03/14 11:39:48;;;;;;;17.30;8.03;;;9.90;99.90;;;;;;6206508;23;20021;-38
2022/03/14 11:42:15;;;;;;;19.37;7.90;;;9.90;99.90;;;;;;6208522;23;20096;-37
2022/03/14 11:44:44;;;;;;;16.17;7.07;;;9.90;99.90;;;;;;6207680;23;20031;-35
2022/03/14 11:47:12;;;;;;;14.47;7.53;;;9.90;99.90;;;;;;6191546;23;20020;-37
2022/03/14 11:49:41;;;;;;;17.75;7.70;;;10.00;99.90;;;;;;6209145;23;20024;-36
2022/03/14 11:52:19;;;;;;;18.53;7.70;;;10.00;99.90;;;;;;6207985;23;20027;-38
2022/03/14 11:54:53;;;;;;;18.80;8.60;;;10.00;99.90;;;;;;6208580;23;20444;-37
2022/03/14 11:57:41;;;;;;;17.63;8.37;;;10.00;99.90;;;;;;6189727;23;20055;-38
2022/03/14 12:00:22;;;;;;;21.60;8.23;;;10.00;99.90;;;;;;6208725;23;20021;-37
2022/03/14 12:02:52;;;;;;;18.70;8.52;;;10.00;99.90;;;;;;6208578;23;20020;-37
2022/03/14 12:05:22;;;;;;;22.25;8.80;;;10.00;99.90;;;;;;6207142;23;20078;-37
2022/03/14 12:07:48;;;;;;;21.60;8.13;;;10.00;99.90;;;;;;6190144;23;20139;-37
2022/03/14 12:10:31;;;;;;;16.70;8.73;;;10.00;99.90;;;;;;6207031;23;20067;-36
2022/03/14 12:13:01;;;;;;;22.40;8.60;;;10.00;99.90;;;;;;6208618;23;20020;-36
2022/03/14 12:15:38;;;;;;;20.20;8.73;;;10.00;99.90;;;;;;6209045;23;20518;-37
2022/03/14 12:18:26;;;;;;;18.67;9.20;;;10.00;99.90;;;;;;6189037;23;20087;-38
2022/03/14 12:20:59;;;;;;;17.77;9.93;;;10.10;99.90;;;;;;6209095;23;20052;-35
2022/03/14 12:23:31;;;;;;;19.97;11.00;;;10.10;99.90;;;;;;6206383;23;20364;-37
2022/03/14 12:26:20;;;;;;;24.63;11.02;;;10.10;99.90;;;;;;6209067;23;20151;-37
2022/03/14 12:28:46;;;;;;;25.63;12.23;;;10.10;99.90;;;;;;6181434;23;20051;-37
2022/03/14 12:31:16;;;;;;;29.87;13.87;;;10.10;99.90;;;;;;6209725;23;20013;-35
2022/03/14 12:33:44;;;;;;;27.67;13.83;;;10.20;99.90;;;;;;6191329;23;20028;-36
2022/03/14 12:36:19;;;;;;;26.63;14.17;;;10.40;99.90;;;;;;6200784;23;20023;-37
2022/03/14 12:39:07;;;;;;;28.43;15.53;;;10.40;99.90;;;;;;6201275;23;20479;-36
2022/03/14 12:41:41;;;;;;;31.27;14.40;;;10.40;99.90;;;;;;6209115;23;20087;-37
2022/03/14 12:44:24;;;;;;;31.67;15.17;;;10.40;99.90;;;;;;6207046;23;20166;-37
2022/03/14 12:46:59;;;;;;;27.98;13.15;;;10.50;99.90;;;;;;6191129;23;20064;-37